TimeEDT,TemperatureF,Dew PointF,Humidity,Sea Level PressureIn,VisibilityMPH,Wind Direction,Wind SpeedMPH,Gust SpeedMPH,PrecipitationIn,Events,Conditions,WindDirDegrees,DateUTC
12:53 AM,-9999,-9999,N/A,29.99,-9999.0,North,-9999.0,-,N/A,,Unknown,0,2013-09-30 04:53:00
1:53 AM,-9999,-9999,N/A,29.98,-9999.0,North,-9999.0,-,N/A,,Unknown,0,2013-09-30 05:53:00
2:53 AM,-9999,-9999,N/A,29.98,-9999.0,North,-9999.0,-,N/A,,Unknown,0,2013-09-30 06:53:00
3:53 AM,-9999,-9999,N/A,29.98,-9999.0,North,-9999.0,-,N/A,,Unknown,0,2013-09-30 07:53:00
4:53 AM,-9999,-9999,N/A,29.98,-9999.0,North,-9999.0,-,N/A,,Unknown,0,2013-09-30 08:53:00
5:53 AM,-9999,-9999,N/A,29.98,-9999.0,North,-9999.0,-,N/A,,Unknown,0,2013-09-30 09:53:00
6:53 AM,-9999,-9999,N/A,29.99,-9999.0,North,-9999.0,-,N/A,,Unknown,0,2013-09-30 10:53:00
7:53 AM,-9999,-9999,N/A,30.00,4.0,North,-9999.0,-,N/A,,Haze,0,2013-09-30 11:53:00
8:53 AM,-9999,-9999,N/A,30.01,-9999.0,North,-9999.0,-,N/A,,Unknown,0,2013-09-30 12:53:00
9:30 AM,-9999,-9999,N/A,30.01,4.0,North,-9999.0,-,N/A,,Haze,0,2013-09-30 13:30:00
9:53 AM,-9999,-9999,N/A,30.01,3.0,SW,8.1,-,N/A,,Overcast,230,2013-09-30 13:53:00
10:00 AM,-9999,-9999,N/A,30.01,-9999.0,North,-9999.0,-,N/A,,Mist,0,2013-09-30 14:00:00
10:53 AM,-9999,-9999,N/A,30.01,-9999.0,North,-9999.0,-,N/A,,Mist,0,2013-09-30 14:53:00
11:12 AM,-9999,-9999,N/A,30.01,3.0,WSW,6.9,-,N/A,,Overcast,240,2013-09-30 15:12:00
11:53 AM,-9999,-9999,N/A,30.01,3.0,WSW,6.9,-,N/A,,Overcast,240,2013-09-30 15:53:00
12:53 PM,-9999,-9999,N/A,30.01,3.0,SW,5.8,-,N/A,,Overcast,220,2013-09-30 16:53:00
1:00 PM,-9999,-9999,N/A,30.01,-9999.0,North,-9999.0,-,N/A,,Mist,0,2013-09-30 17:00:00
1:20 PM,-9999,-9999,N/A,30.01,3.0,North,-9999.0,-,N/A,,Overcast,0,2013-09-30 17:20:00
1:53 PM,-9999,-9999,N/A,30.00,7.0,North,-9999.0,-,N/A,,Overcast,0,2013-09-30 17:53:00
2:00 PM,-9999,-9999,N/A,30.00,7.0,North,-9999.0,-,N/A,,Overcast,0,2013-09-30 18:00:00
2:53 PM,-9999,-9999,N/A,29.99,7.0,North,-9999.0,-,N/A,,Overcast,0,2013-09-30 18:53:00
3:00 PM,-9999,-9999,N/A,29.99,-9999.0,North,-9999.0,-,N/A,,Unknown,0,2013-09-30 19:00:00
3:53 PM,-9999,-9999,N/A,29.99,-9999.0,North,-9999.0,-,N/A,,Unknown,0,2013-09-30 19:53:00
4:02 PM,-9999,-9999,N/A,29.99,7.0,WNW,6.9,-,N/A,Rain,Light Rain,300,2013-09-30 20:02:00
4:53 PM,-9999,-9999,N/A,29.96,10.0,Calm,Calm,-,N/A,,Mostly Cloudy,0,2013-09-30 20:53:00
5:53 PM,-9999,-9999,N/A,29.97,10.0,Calm,Calm,-,N/A,,Mostly Cloudy,0,2013-09-30 21:53:00
6:53 PM,-9999,-9999,N/A,29.97,7.0,Calm,Calm,-,N/A,,Mostly Cloudy,0,2013-09-30 22:53:00
7:53 PM,-9999,-9999,N/A,29.98,10.0,SSE,5.8,-,N/A,,Partly Cloudy,160,2013-09-30 23:53:00
8:53 PM,-9999,-9999,N/A,29.99,7.0,SSE,5.8,-,N/A,,Scattered Clouds,160,2013-10-01 00:53:00
9:53 PM,-9999,-9999,N/A,29.98,7.0,SSE,9.2,-,N/A,,Partly Cloudy,160,2013-10-01 01:53:00
10:53 PM,-9999,-9999,N/A,29.98,7.0,SSE,5.8,-,N/A,,Partly Cloudy,160,2013-10-01 02:53:00
11:53 PM,-9999,-9999,N/A,29.98,-9999.0,North,-9999.0,-,N/A,,Unknown,0,2013-10-01 03:53:00